createdAt,value
2022-08-22T00:00:33.925Z,73.26
2022-08-22T00:02:45.889Z,73.85
2022-08-22T00:05:27.218Z,74.71
2022-08-22T00:10:25.539Z,73.56
2022-08-22T00:14:58.563Z,73.68
2022-08-22T00:19:42.148Z,72.98
2022-08-22T00:23:58.271Z,71.64
2022-08-22T00:28:30.480Z,72.94
2022-08-22T00:33:01.879Z,73.06
2022-08-22T00:37:26.240Z,73.70
2022-08-22T00:41:56.230Z,71.94
2022-08-22T00:46:38.508Z,72.17
2022-08-22T00:51:23.313Z,73.40
2022-08-22T00:56:03.058Z,72.23
2022-08-22T01:00:30.606Z,70.64
2022-08-22T01:05:09.980Z,70.82
2022-08-22T01:09:38.087Z,72.50
2022-08-22T01:14:42.313Z,71.96
2022-08-22T01:19:10.175Z,71.30
2022-08-22T01:23:45.239Z,72.46
2022-08-22T01:28:36.419Z,73.06
2022-08-22T01:33:13.944Z,72.00
2022-08-22T01:37:47.836Z,73.97
2022-08-22T01:42:16.294Z,71.23
2022-08-22T01:46:52.281Z,70.77
2022-08-22T01:51:23.470Z,70.67
2022-08-22T01:55:53.860Z,70.59
2022-08-22T02:00:16.422Z,70.64
2022-08-22T02:04:48.584Z,70.94
2022-08-22T02:09:23.440Z,70.45
2022-08-22T02:13:57.234Z,71.05
2022-08-22T02:18:26.083Z,70.77
2022-08-22T02:23:00.996Z,70.65
2022-08-22T02:27:31.714Z,70.47
2022-08-22T02:31:56.293Z,70.38
2022-08-22T02:36:42.186Z,70.41
2022-08-22T02:41:16.109Z,70.21
2022-08-22T02:45:57.459Z,70.07
2022-08-22T02:50:23.662Z,70.09
2022-08-22T02:54:48.882Z,70.41
2022-08-22T02:59:37.535Z,69.95
2022-08-22T03:04:13.973Z,69.74
2022-08-22T03:08:36.198Z,69.92
2022-08-22T03:13:07.408Z,70.46
2022-08-22T03:17:29.358Z,70.20
2022-08-22T03:21:52.826Z,70.02
2022-08-22T03:26:26.818Z,69.73
2022-08-22T03:30:56.831Z,69.63
2022-08-22T03:35:23.011Z,69.95
2022-08-22T03:39:45.230Z,69.70
2022-08-22T03:44:20.063Z,69.36
2022-08-22T03:48:51.445Z,69.86
2022-08-22T03:53:41.078Z,69.68
2022-08-22T03:58:27.347Z,70.26
2022-08-22T04:02:50.604Z,69.75
2022-08-22T04:07:33.402Z,70.39
2022-08-22T04:12:08.566Z,70.13
2022-08-22T04:16:45.822Z,69.92
2022-08-22T04:21:29.579Z,70.35
2022-08-22T04:25:53.555Z,70.48
2022-08-22T04:30:25.473Z,69.75
2022-08-22T04:34:53.431Z,70.50
2022-08-22T04:39:13.179Z,70.50
2022-08-22T04:43:38.696Z,70.55
2022-08-22T04:48:00.602Z,70.61
2022-08-22T04:52:32.089Z,70.19
2022-08-22T04:57:32.227Z,70.32
2022-08-22T05:01:57.114Z,70.50
2022-08-22T05:06:15.970Z,69.51
2022-08-22T05:10:37.712Z,70.31
2022-08-22T05:15:02.907Z,70.25
2022-08-22T05:19:36.052Z,70.24
2022-08-22T05:24:28.085Z,70.26
2022-08-22T05:28:53.110Z,69.98
2022-08-22T05:33:27.183Z,70.99
2022-08-22T05:37:50.283Z,71.97
2022-08-22T05:42:12.269Z,71.19
2022-08-22T05:46:43.596Z,70.57
2022-08-22T05:51:25.491Z,70.83
2022-08-22T05:55:52.822Z,70.26
2022-08-22T06:00:13.161Z,70.23
2022-08-22T06:04:47.829Z,69.54
2022-08-22T06:09:06.892Z,69.47
2022-08-22T06:13:47.387Z,69.23
2022-08-22T06:18:10.545Z,69.62
2022-08-22T06:22:30.054Z,69.49
2022-08-22T06:26:49.703Z,68.33
2022-08-22T06:31:08.248Z,68.86
2022-08-22T06:35:26.888Z,69.28
2022-08-22T06:39:45.341Z,69.13
2022-08-22T06:44:02.178Z,70.04
2022-08-22T06:48:21.878Z,68.66
2022-08-22T06:53:11.779Z,69.06
2022-08-22T06:57:33.430Z,69.01
2022-08-22T07:02:23.288Z,68.96
2022-08-22T07:06:44.700Z,68.93
2022-08-22T07:11:23.640Z,69.79
2022-08-22T07:15:43.237Z,69.53
2022-08-22T07:20:32.096Z,68.93
2022-08-22T07:24:52.365Z,70.08
2022-08-22T07:29:28.174Z,69.08
2022-08-22T07:33:48.394Z,67.71
2022-08-22T07:38:42.940Z,68.08
2022-08-22T07:43:04.467Z,68.16
2022-08-22T07:47:26.621Z,67.79
2022-08-22T07:52:06.048Z,67.57
2022-08-22T07:56:30.303Z,67.42
2022-08-22T08:00:46.972Z,67.08
2022-08-22T08:05:03.200Z,67.31
2022-08-22T08:09:19.954Z,67.16
2022-08-22T08:13:40.189Z,66.36
2022-08-22T08:18:00.622Z,66.34
2022-08-22T08:22:20.272Z,65.81
2022-08-22T08:27:09.527Z,65.51
2022-08-22T08:31:43.063Z,64.62
2022-08-22T08:36:05.483Z,64.62
2022-08-22T08:40:33.283Z,64.53
2022-08-22T08:44:58.897Z,66.37
2022-08-22T08:49:33.755Z,64.26
2022-08-22T08:54:23.923Z,64.08
2022-08-22T08:58:52.578Z,63.01
2022-08-22T09:03:30.781Z,65.83
2022-08-22T09:08:21.306Z,64.29
2022-08-22T09:13:12.094Z,64.58
2022-08-22T09:17:37.429Z,62.86
2022-08-22T09:22:33.546Z,64.07
2022-08-22T09:27:16.234Z,63.82
2022-08-22T09:31:47.691Z,63.47
2022-08-22T09:36:26.123Z,63.38
2022-08-22T09:40:56.743Z,63.75
2022-08-22T09:45:36.648Z,64.45
2022-08-22T09:50:09.863Z,62.89
2022-08-22T09:54:45.905Z,63.52
2022-08-22T09:59:12.324Z,61.40
2022-08-22T10:04:12.783Z,59.60
2022-08-22T10:08:47.140Z,59.82
2022-08-22T10:13:34.123Z,62.93
2022-08-22T10:18:26.176Z,62.40
2022-08-22T10:22:51.384Z,61.36
2022-08-22T10:27:18.712Z,62.33
2022-08-22T10:31:35.601Z,61.34
2022-08-22T10:36:20.987Z,62.64
2022-08-22T10:40:59.168Z,63.11
2022-08-22T10:45:35.756Z,62.75
2022-08-22T10:49:56.869Z,61.18
2022-08-22T10:54:27.163Z,61.71
2022-08-22T10:58:55.033Z,59.38
2022-08-22T11:03:41.629Z,60.07
2022-08-22T11:08:23.154Z,60.16
2022-08-22T11:12:48.709Z,59.28
2022-08-22T11:17:30.304Z,59.76
2022-08-22T11:21:47.811Z,55.75
2022-08-22T11:26:30.109Z,57.43
2022-08-22T11:31:16.408Z,57.79
2022-08-22T11:35:36.634Z,57.48
2022-08-22T11:40:21.249Z,58.61
2022-08-22T11:44:50.920Z,57.43
2022-08-22T11:49:25.780Z,55.49
2022-08-22T11:53:48.319Z,54.56
2022-08-22T11:58:33.187Z,54.16
2022-08-22T12:03:01.744Z,54.40
2022-08-22T12:07:30.501Z,54.72
2022-08-22T12:12:10.782Z,53.71
2022-08-22T12:16:26.783Z,53.53
2022-08-22T12:21:21.443Z,54.12
2022-08-22T12:25:56.278Z,53.29
2022-08-22T12:30:19.011Z,53.40
2022-08-22T12:34:46.678Z,52.63
2022-08-22T12:39:41.198Z,53.18
2022-08-22T12:44:09.155Z,54.23
2022-08-22T12:48:59.797Z,53.45
2022-08-22T12:53:40.069Z,52.22
2022-08-22T12:58:14.738Z,49.63
2022-08-22T13:02:36.161Z,50.81
2022-08-22T13:06:56.154Z,54.53
2022-08-22T13:11:22.326Z,54.04
2022-08-22T13:15:42.734Z,55.76
2022-08-22T13:20:28.573Z,56.27
2022-08-22T13:24:56.860Z,56.63
2022-08-22T13:29:27.109Z,57.32
2022-08-22T13:33:47.937Z,57.08
2022-08-22T13:38:26.120Z,54.85
2022-08-22T13:42:48.453Z,55.56
2022-08-22T13:47:14.513Z,58.06
2022-08-22T13:51:55.512Z,58.48
2022-08-22T13:56:26.260Z,56.07
2022-08-22T14:01:03.965Z,54.29
2022-08-22T14:05:44.669Z,54.55
2022-08-22T14:10:14.789Z,55.88
2022-08-22T14:14:33.820Z,54.50
2022-08-22T14:18:54.875Z,53.97
2022-08-22T14:23:29.589Z,52.21
2022-08-22T14:27:52.693Z,54.08
2022-08-22T14:32:35.079Z,52.65
2022-08-22T14:37:18.609Z,53.96
2022-08-22T14:41:55.603Z,55.88
2022-08-22T14:46:18.878Z,56.50
2022-08-22T14:50:38.659Z,55.99
2022-08-22T14:55:09.551Z,55.58
2022-08-22T14:59:50.715Z,57.45
2022-08-22T15:04:14.650Z,60.47
2022-08-22T15:08:34.875Z,59.16
2022-08-22T15:12:54.323Z,58.81
2022-08-22T15:17:11.150Z,60.67
2022-08-22T15:21:33.140Z,61.73
2022-08-22T15:26:05.462Z,61.88
2022-08-22T15:30:37.091Z,62.90
2022-08-22T15:35:02.479Z,65.57
2022-08-22T15:39:35.127Z,65.95
2022-08-22T15:44:31.140Z,65.78
2022-08-22T15:48:58.003Z,68.37
2022-08-22T15:53:26.566Z,68.09
2022-08-22T15:57:50.930Z,68.26
2022-08-22T16:02:22.770Z,68.78
2022-08-22T16:06:51.355Z,69.68
2022-08-22T16:11:33.419Z,71.43
2022-08-22T16:15:54.377Z,71.05
2022-08-22T16:20:19.530Z,70.58
2022-08-22T16:24:57.960Z,69.73
2022-08-22T16:29:20.570Z,73.90
2022-08-22T16:33:39.565Z,71.66
2022-08-22T16:37:55.784Z,71.46
2022-08-22T16:42:22.576Z,71.68
2022-08-22T16:46:42.075Z,72.40
2022-08-22T16:51:21.565Z,74.31
2022-08-22T16:55:47.037Z,72.87
2022-08-22T17:00:13.488Z,73.59
2022-08-22T17:05:00.129Z,72.73
2022-08-22T17:09:32.420Z,71.72
2022-08-22T17:13:48.595Z,70.96
2022-08-22T17:18:45.218Z,70.15
2022-08-22T17:23:23.887Z,71.35
2022-08-22T17:27:43.584Z,70.31
2022-08-22T17:32:37.906Z,69.10
2022-08-22T17:37:13.986Z,69.67
2022-08-22T17:41:49.943Z,69.73
2022-08-22T17:46:14.436Z,68.78
2022-08-22T17:50:57.266Z,68.87
2022-08-22T17:55:28.274Z,68.45
2022-08-22T18:00:15.865Z,68.00
2022-08-22T18:05:03.594Z,69.39
2022-08-22T18:09:35.170Z,69.57
2022-08-22T18:13:57.273Z,69.93
2022-08-22T18:18:19.768Z,70.22
2022-08-22T18:22:53.793Z,69.47
2022-08-22T18:27:34.198Z,68.69
2022-08-22T18:32:12.810Z,69.22
2022-08-22T18:36:33.066Z,69.44
2022-08-22T18:41:18.291Z,69.13
2022-08-22T18:45:46.529Z,70.06
2022-08-22T18:50:32.889Z,69.68
2022-08-22T18:55:04.294Z,70.33
2022-08-22T18:59:30.303Z,69.19
2022-08-22T19:04:09.757Z,69.01
2022-08-22T19:09:04.149Z,68.89
2022-08-22T19:13:56.368Z,70.29
2022-08-22T19:18:21.711Z,70.12
2022-08-22T19:22:38.006Z,69.81
2022-08-22T19:27:18.192Z,70.21
2022-08-22T19:31:39.990Z,69.36
2022-08-22T19:35:56.552Z,69.66
2022-08-22T19:40:34.007Z,69.82
2022-08-22T19:44:56.134Z,69.19
2022-08-22T19:49:37.275Z,68.13
2022-08-22T19:54:18.407Z,68.37
2022-08-22T19:58:52.738Z,68.89
2022-08-22T20:03:13.039Z,69.18
2022-08-22T20:07:42.373Z,69.88
2022-08-22T20:12:09.216Z,69.43
2022-08-22T20:17:05.583Z,69.11
2022-08-22T20:21:40.823Z,68.93
2022-08-22T20:25:57.549Z,68.46
2022-08-22T20:30:16.378Z,68.64
2022-08-22T20:34:37.039Z,68.77
2022-08-22T20:38:57.793Z,68.77
2022-08-22T20:43:33.123Z,69.50
2022-08-22T20:47:50.620Z,68.96
2022-08-22T20:52:30.885Z,68.90
2022-08-22T20:56:57.742Z,69.40
2022-08-22T21:01:14.321Z,68.79
2022-08-22T21:05:45.222Z,69.52
2022-08-22T21:10:42.113Z,68.58
2022-08-22T21:14:58.283Z,68.64
2022-08-22T21:19:25.452Z,69.43
2022-08-22T21:23:43.812Z,69.13
2022-08-22T21:28:00.900Z,71.50
2022-08-22T21:32:38.350Z,71.55
2022-08-22T21:36:58.706Z,70.20
2022-08-22T21:41:19.333Z,70.33
2022-08-22T21:45:37.895Z,70.51
2022-08-22T21:50:08.476Z,69.45
2022-08-22T21:54:30.376Z,69.93
2022-08-22T21:58:46.472Z,70.22
2022-08-22T22:03:02.935Z,70.34
2022-08-22T22:07:19.309Z,69.83
2022-08-22T22:11:35.360Z,70.42
2022-08-22T22:15:52.997Z,70.27
2022-08-22T22:20:09.821Z,70.25
2022-08-22T22:24:25.816Z,69.47
2022-08-22T22:28:44.556Z,69.61
2022-08-22T22:33:00.920Z,69.60
2022-08-22T22:37:17.069Z,69.67
2022-08-22T22:41:33.326Z,68.91
2022-08-22T22:45:49.798Z,68.97
2022-08-22T22:50:07.266Z,69.38
2022-08-22T22:54:27.470Z,69.31
2022-08-22T22:58:47.459Z,68.98
2022-08-22T23:03:06.505Z,69.29
2022-08-22T23:07:26.940Z,69.40
2022-08-22T23:11:43.618Z,69.21
2022-08-22T23:15:59.599Z,69.43
2022-08-22T23:20:15.708Z,69.53
2022-08-22T23:24:32.018Z,70.09
2022-08-22T23:28:48.001Z,70.38
2022-08-22T23:33:04.031Z,70.20
2022-08-22T23:37:22.764Z,69.99
2022-08-22T23:41:39.220Z,70.02
2022-08-22T23:45:55.222Z,70.51
2022-08-22T23:50:11.395Z,70.06
2022-08-22T23:54:27.858Z,69.24
2022-08-22T23:58:44.589Z,69.64
